sensor_id;sensor_type;location;lat;lon;timestamp;temperature;humidity
11944;DHT22;6031;50.220;10.122;2022-12-07T00:00:55;2.20;99.90
11944;DHT22;6031;50.220;10.122;2022-12-07T00:03:21;2.30;99.90
11944;DHT22;6031;50.220;10.122;2022-12-07T00:05:46;2.30;99.90
11944;DHT22;6031;50.220;10.122;2022-12-07T00:08:12;2.40;99.90
11944;DHT22;6031;50.220;10.122;2022-12-07T00:10:37;2.30;99.90
11944;DHT22;6031;50.220;10.122;2022-12-07T00:13:03;2.30;99.90
11944;DHT22;6031;50.220;10.122;2022-12-07T00:15:28;2.30;99.90
11944;DHT22;6031;50.220;10.122;2022-12-07T00:17:54;2.30;99.90
11944;DHT22;6031;50.220;10.122;2022-12-07T00:20:19;2.30;99.90
11944;DHT22;6031;50.220;10.122;2022-12-07T00:22:45;2.20;99.90
11944;DHT22;6031;50.220;10.122;2022-12-07T00:25:10;2.20;99.90
11944;DHT22;6031;50.220;10.122;2022-12-07T00:27:36;2.20;99.90
11944;DHT22;6031;50.220;10.122;2022-12-07T00:30:02;2.20;99.90
11944;DHT22;6031;50.220;10.122;2022-12-07T00:32:27;2.20;99.90
11944;DHT22;6031;50.220;10.122;2022-12-07T00:34:53;2.30;99.90
11944;DHT22;6031;50.220;10.122;2022-12-07T00:37:18;2.20;99.90
11944;DHT22;6031;50.220;10.122;2022-12-07T00:39:45;2.20;99.90
11944;DHT22;6031;50.220;10.122;2022-12-07T00:42:11;2.20;99.90
11944;DHT22;6031;50.220;10.122;2022-12-07T00:44:36;2.20;99.90
11944;DHT22;6031;50.220;10.122;2022-12-07T00:47:02;2.10;99.90
11944;DHT22;6031;50.220;10.122;2022-12-07T00:49:27;2.10;99.90
11944;DHT22;6031;50.220;10.122;2022-12-07T00:51:53;2.10;99.90
11944;DHT22;6031;50.220;10.122;2022-12-07T00:54:19;2.10;99.90
11944;DHT22;6031;50.220;10.122;2022-12-07T00:56:45;2.00;99.90
11944;DHT22;6031;50.220;10.122;2022-12-07T00:59:12;2.00;99.90
11944;DHT22;6031;50.220;10.122;2022-12-07T01:01:39;2.10;99.90
11944;DHT22;6031;50.220;10.122;2022-12-07T01:04:05;2.10;99.90
11944;DHT22;6031;50.220;10.122;2022-12-07T01:06:31;2.10;99.90
11944;DHT22;6031;50.220;10.122;2022-12-07T01:08:57;2.10;99.90
11944;DHT22;6031;50.220;10.122;2022-12-07T01:11:25;2.10;99.90
11944;DHT22;6031;50.220;10.122;2022-12-07T01:13:53;2.10;99.90
11944;DHT22;6031;50.220;10.122;2022-12-07T01:16:20;2.00;99.90
11944;DHT22;6031;50.220;10.122;2022-12-07T01:18:47;2.00;99.90
11944;DHT22;6031;50.220;10.122;2022-12-07T01:21:21;2.00;99.90
11944;DHT22;6031;50.220;10.122;2022-12-07T01:23:47;2.00;99.90
11944;DHT22;6031;50.220;10.122;2022-12-07T01:26:16;2.00;99.90
11944;DHT22;6031;50.220;10.122;2022-12-07T01:28:43;2.10;99.90
11944;DHT22;6031;50.220;10.122;2022-12-07T01:31:14;2.10;99.90
11944;DHT22;6031;50.220;10.122;2022-12-07T01:33:47;2.10;99.90
11944;DHT22;6031;50.220;10.122;2022-12-07T01:36:30;2.10;99.90
11944;DHT22;6031;50.220;10.122;2022-12-07T01:39:01;2.10;99.90
11944;DHT22;6031;50.220;10.122;2022-12-07T01:41:31;2.00;99.90
11944;DHT22;6031;50.220;10.122;2022-12-07T01:46:51;2.00;99.90
11944;DHT22;6031;50.220;10.122;2022-12-07T01:52:01;2.00;99.90
11944;DHT22;6031;50.220;10.122;2022-12-07T01:54:30;2.00;99.90
11944;DHT22;6031;50.220;10.122;2022-12-07T01:56:57;2.00;99.90
11944;DHT22;6031;50.220;10.122;2022-12-07T01:59:24;2.00;99.90
11944;DHT22;6031;50.220;10.122;2022-12-07T02:01:52;2.00;99.90
11944;DHT22;6031;50.220;10.122;2022-12-07T02:04:18;2.00;99.90
11944;DHT22;6031;50.220;10.122;2022-12-07T02:06:44;2.00;99.90
11944;DHT22;6031;50.220;10.122;2022-12-07T02:09:11;2.00;99.90
11944;DHT22;6031;50.220;10.122;2022-12-07T02:11:37;2.00;99.90
11944;DHT22;6031;50.220;10.122;2022-12-07T02:14:03;2.10;99.90
11944;DHT22;6031;50.220;10.122;2022-12-07T02:16:53;2.10;99.90
11944;DHT22;6031;50.220;10.122;2022-12-07T02:25:03;2.10;99.90
11944;DHT22;6031;50.220;10.122;2022-12-07T02:28:15;2.10;99.90
11944;DHT22;6031;50.220;10.122;2022-12-07T02:30:45;2.10;99.90
11944;DHT22;6031;50.220;10.122;2022-12-07T02:33:28;2.10;99.90
11944;DHT22;6031;50.220;10.122;2022-12-07T02:35:59;2.20;99.90
11944;DHT22;6031;50.220;10.122;2022-12-07T02:41:38;2.20;99.90
11944;DHT22;6031;50.220;10.122;2022-12-07T02:44:08;2.10;99.90
11944;DHT22;6031;50.220;10.122;2022-12-07T02:46:41;2.10;99.90
11944;DHT22;6031;50.220;10.122;2022-12-07T02:49:08;2.10;99.90
11944;DHT22;6031;50.220;10.122;2022-12-07T02:51:38;2.10;99.90
11944;DHT22;6031;50.220;10.122;2022-12-07T02:54:12;2.10;99.90
11944;DHT22;6031;50.220;10.122;2022-12-07T02:56:48;2.10;99.90
11944;DHT22;6031;50.220;10.122;2022-12-07T03:12:55;2.20;99.90
11944;DHT22;6031;50.220;10.122;2022-12-07T03:15:29;2.20;99.90
11944;DHT22;6031;50.220;10.122;2022-12-07T03:17:58;2.20;99.90
11944;DHT22;6031;50.220;10.122;2022-12-07T03:20:26;2.20;99.90
11944;DHT22;6031;50.220;10.122;2022-12-07T03:22:53;2.20;99.90
11944;DHT22;6031;50.220;10.122;2022-12-07T03:25:20;2.20;99.90
11944;DHT22;6031;50.220;10.122;2022-12-07T03:27:51;2.20;99.90
11944;DHT22;6031;50.220;10.122;2022-12-07T03:30:28;2.20;99.90
11944;DHT22;6031;50.220;10.122;2022-12-07T03:35:58;2.30;99.90
11944;DHT22;6031;50.220;10.122;2022-12-07T03:38:25;2.20;99.90
11944;DHT22;6031;50.220;10.122;2022-12-07T03:41:02;2.20;99.90
11944;DHT22;6031;50.220;10.122;2022-12-07T03:43:29;2.20;99.90
11944;DHT22;6031;50.220;10.122;2022-12-07T03:48:37;2.30;99.90
11944;DHT22;6031;50.220;10.122;2022-12-07T03:51:16;2.30;99.90
11944;DHT22;6031;50.220;10.122;2022-12-07T03:53:54;2.30;99.90
11944;DHT22;6031;50.220;10.122;2022-12-07T03:56:22;2.40;99.90
11944;DHT22;6031;50.220;10.122;2022-12-07T03:58:49;2.30;99.90
11944;DHT22;6031;50.220;10.122;2022-12-07T04:01:15;2.30;99.90
11944;DHT22;6031;50.220;10.122;2022-12-07T04:03:40;2.30;99.90
11944;DHT22;6031;50.220;10.122;2022-12-07T04:06:06;2.40;99.90
11944;DHT22;6031;50.220;10.122;2022-12-07T04:08:31;2.30;99.90
11944;DHT22;6031;50.220;10.122;2022-12-07T04:10:57;2.40;99.90
11944;DHT22;6031;50.220;10.122;2022-12-07T04:13:22;2.40;99.90
11944;DHT22;6031;50.220;10.122;2022-12-07T04:15:48;2.40;99.90
11944;DHT22;6031;50.220;10.122;2022-12-07T04:18:13;2.30;99.90
11944;DHT22;6031;50.220;10.122;2022-12-07T04:20:39;2.40;99.90
11944;DHT22;6031;50.220;10.122;2022-12-07T04:23:04;2.40;99.90
11944;DHT22;6031;50.220;10.122;2022-12-07T04:25:30;2.30;99.90
11944;DHT22;6031;50.220;10.122;2022-12-07T04:27:55;2.30;99.90
11944;DHT22;6031;50.220;10.122;2022-12-07T04:30:21;2.20;99.90
11944;DHT22;6031;50.220;10.122;2022-12-07T04:32:47;2.20;99.90
11944;DHT22;6031;50.220;10.122;2022-12-07T04:35:12;2.20;99.90
11944;DHT22;6031;50.220;10.122;2022-12-07T04:37:38;2.20;99.90
11944;DHT22;6031;50.220;10.122;2022-12-07T04:40:07;2.20;99.90
11944;DHT22;6031;50.220;10.122;2022-12-07T04:42:34;2.20;99.90
11944;DHT22;6031;50.220;10.122;2022-12-07T04:44:59;2.20;99.90
11944;DHT22;6031;50.220;10.122;2022-12-07T04:47:25;2.20;99.90
11944;DHT22;6031;50.220;10.122;2022-12-07T04:49:50;2.30;99.90
11944;DHT22;6031;50.220;10.122;2022-12-07T04:52:16;2.30;99.90
11944;DHT22;6031;50.220;10.122;2022-12-07T04:54:41;2.30;99.90
11944;DHT22;6031;50.220;10.122;2022-12-07T04:57:07;2.40;99.90
11944;DHT22;6031;50.220;10.122;2022-12-07T04:59:32;2.40;99.90
11944;DHT22;6031;50.220;10.122;2022-12-07T05:01:58;2.40;99.90
11944;DHT22;6031;50.220;10.122;2022-12-07T05:04:23;2.40;99.90
11944;DHT22;6031;50.220;10.122;2022-12-07T05:06:49;2.30;99.90
11944;DHT22;6031;50.220;10.122;2022-12-07T05:09:14;2.30;99.90
11944;DHT22;6031;50.220;10.122;2022-12-07T05:11:40;2.30;99.90
11944;DHT22;6031;50.220;10.122;2022-12-07T05:14:11;2.30;99.90
11944;DHT22;6031;50.220;10.122;2022-12-07T05:16:38;2.30;99.90
11944;DHT22;6031;50.220;10.122;2022-12-07T05:19:05;2.30;99.90
11944;DHT22;6031;50.220;10.122;2022-12-07T05:21:30;2.30;99.90
11944;DHT22;6031;50.220;10.122;2022-12-07T05:23:56;2.40;99.90
11944;DHT22;6031;50.220;10.122;2022-12-07T05:26:21;2.40;99.90
11944;DHT22;6031;50.220;10.122;2022-12-07T05:28:55;2.40;99.90
11944;DHT22;6031;50.220;10.122;2022-12-07T05:31:21;2.50;99.90
11944;DHT22;6031;50.220;10.122;2022-12-07T05:33:47;2.50;99.90
11944;DHT22;6031;50.220;10.122;2022-12-07T05:36:13;2.50;99.90
11944;DHT22;6031;50.220;10.122;2022-12-07T05:38:39;2.50;99.90
11944;DHT22;6031;50.220;10.122;2022-12-07T05:41:06;2.50;99.90
11944;DHT22;6031;50.220;10.122;2022-12-07T05:43:32;2.50;99.90
11944;DHT22;6031;50.220;10.122;2022-12-07T05:45:58;2.60;99.90
11944;DHT22;6031;50.220;10.122;2022-12-07T05:48:24;2.60;99.90
11944;DHT22;6031;50.220;10.122;2022-12-07T05:50:50;2.60;99.90
11944;DHT22;6031;50.220;10.122;2022-12-07T05:53:17;2.60;99.90
11944;DHT22;6031;50.220;10.122;2022-12-07T05:55:43;2.60;99.90
11944;DHT22;6031;50.220;10.122;2022-12-07T05:58:09;2.60;99.90
11944;DHT22;6031;50.220;10.122;2022-12-07T06:00:56;2.60;99.90
11944;DHT22;6031;50.220;10.122;2022-12-07T06:03:21;2.60;99.90
11944;DHT22;6031;50.220;10.122;2022-12-07T06:05:48;2.60;99.90
11944;DHT22;6031;50.220;10.122;2022-12-07T06:08:13;2.60;99.90
11944;DHT22;6031;50.220;10.122;2022-12-07T06:10:40;2.70;99.90
11944;DHT22;6031;50.220;10.122;2022-12-07T06:13:07;2.70;99.90
11944;DHT22;6031;50.220;10.122;2022-12-07T06:15:33;2.70;99.90
11944;DHT22;6031;50.220;10.122;2022-12-07T06:18:00;2.70;99.90
11944;DHT22;6031;50.220;10.122;2022-12-07T06:20:25;2.80;99.90
11944;DHT22;6031;50.220;10.122;2022-12-07T06:22:51;2.80;99.90
11944;DHT22;6031;50.220;10.122;2022-12-07T06:25:16;2.80;99.90
11944;DHT22;6031;50.220;10.122;2022-12-07T06:27:42;2.80;99.90
11944;DHT22;6031;50.220;10.122;2022-12-07T06:30:08;2.80;99.90
11944;DHT22;6031;50.220;10.122;2022-12-07T06:32:35;2.80;99.90
11944;DHT22;6031;50.220;10.122;2022-12-07T06:35:01;2.90;99.90
11944;DHT22;6031;50.220;10.122;2022-12-07T06:37:27;2.80;99.90
11944;DHT22;6031;50.220;10.122;2022-12-07T06:39:52;2.80;99.90
11944;DHT22;6031;50.220;10.122;2022-12-07T06:42:19;2.80;99.90
11944;DHT22;6031;50.220;10.122;2022-12-07T06:44:44;2.80;99.90
11944;DHT22;6031;50.220;10.122;2022-12-07T06:47:10;2.80;99.90
11944;DHT22;6031;50.220;10.122;2022-12-07T06:49:36;2.80;99.90
11944;DHT22;6031;50.220;10.122;2022-12-07T06:52:02;2.80;99.90
11944;DHT22;6031;50.220;10.122;2022-12-07T06:54:27;2.80;99.90
11944;DHT22;6031;50.220;10.122;2022-12-07T06:56:55;2.80;99.90
11944;DHT22;6031;50.220;10.122;2022-12-07T06:59:21;2.80;99.90
11944;DHT22;6031;50.220;10.122;2022-12-07T07:01:46;2.80;99.90
11944;DHT22;6031;50.220;10.122;2022-12-07T07:04:12;2.80;99.90
11944;DHT22;6031;50.220;10.122;2022-12-07T07:06:37;2.80;99.90
11944;DHT22;6031;50.220;10.122;2022-12-07T07:09:03;2.80;99.90
11944;DHT22;6031;50.220;10.122;2022-12-07T07:11:29;2.80;99.90
11944;DHT22;6031;50.220;10.122;2022-12-07T07:13:54;2.90;99.90
11944;DHT22;6031;50.220;10.122;2022-12-07T07:16:22;2.80;99.90
11944;DHT22;6031;50.220;10.122;2022-12-07T07:18:48;2.90;99.90
11944;DHT22;6031;50.220;10.122;2022-12-07T07:21:13;2.90;99.90
11944;DHT22;6031;50.220;10.122;2022-12-07T07:23:39;2.90;99.90
11944;DHT22;6031;50.220;10.122;2022-12-07T07:26:05;2.90;99.90
11944;DHT22;6031;50.220;10.122;2022-12-07T07:28:30;2.90;99.90
11944;DHT22;6031;50.220;10.122;2022-12-07T07:30:56;2.90;99.90
11944;DHT22;6031;50.220;10.122;2022-12-07T07:33:21;2.90;99.90
11944;DHT22;6031;50.220;10.122;2022-12-07T07:35:47;2.90;99.90
11944;DHT22;6031;50.220;10.122;2022-12-07T07:38:12;2.90;99.90
11944;DHT22;6031;50.220;10.122;2022-12-07T07:40:38;2.90;99.90
11944;DHT22;6031;50.220;10.122;2022-12-07T07:43:04;2.90;99.90
11944;DHT22;6031;50.220;10.122;2022-12-07T07:45:29;2.90;99.90
11944;DHT22;6031;50.220;10.122;2022-12-07T07:47:55;2.90;99.90
11944;DHT22;6031;50.220;10.122;2022-12-07T07:50:21;2.90;99.90
11944;DHT22;6031;50.220;10.122;2022-12-07T07:52:46;2.90;99.90
11944;DHT22;6031;50.220;10.122;2022-12-07T07:55:13;2.90;99.90
11944;DHT22;6031;50.220;10.122;2022-12-07T07:57:39;3.00;99.90
11944;DHT22;6031;50.220;10.122;2022-12-07T08:00:08;3.10;99.90
11944;DHT22;6031;50.220;10.122;2022-12-07T08:02:34;3.10;99.90
11944;DHT22;6031;50.220;10.122;2022-12-07T08:04:59;3.00;99.90
11944;DHT22;6031;50.220;10.122;2022-12-07T08:07:26;3.00;99.90
11944;DHT22;6031;50.220;10.122;2022-12-07T08:09:52;3.00;99.90
11944;DHT22;6031;50.220;10.122;2022-12-07T08:12:17;3.10;99.90
11944;DHT22;6031;50.220;10.122;2022-12-07T08:14:43;3.10;99.90
11944;DHT22;6031;50.220;10.122;2022-12-07T08:17:08;3.10;99.90
11944;DHT22;6031;50.220;10.122;2022-12-07T08:19:34;3.10;99.90
11944;DHT22;6031;50.220;10.122;2022-12-07T08:22:00;3.20;99.90
11944;DHT22;6031;50.220;10.122;2022-12-07T08:24:25;3.20;99.90
11944;DHT22;6031;50.220;10.122;2022-12-07T08:26:51;3.20;99.90
11944;DHT22;6031;50.220;10.122;2022-12-07T08:29:17;3.20;99.90
11944;DHT22;6031;50.220;10.122;2022-12-07T08:31:43;3.20;99.90
11944;DHT22;6031;50.220;10.122;2022-12-07T08:34:10;3.20;99.90
11944;DHT22;6031;50.220;10.122;2022-12-07T08:36:36;3.30;99.90
11944;DHT22;6031;50.220;10.122;2022-12-07T08:39:02;3.30;99.90
11944;DHT22;6031;50.220;10.122;2022-12-07T08:41:28;3.30;99.90
11944;DHT22;6031;50.220;10.122;2022-12-07T08:43:53;3.30;99.90
11944;DHT22;6031;50.220;10.122;2022-12-07T08:46:20;3.30;99.90
11944;DHT22;6031;50.220;10.122;2022-12-07T08:51:14;3.30;99.90
11944;DHT22;6031;50.220;10.122;2022-12-07T08:53:41;3.30;99.90
11944;DHT22;6031;50.220;10.122;2022-12-07T08:56:08;3.40;99.90
11944;DHT22;6031;50.220;10.122;2022-12-07T08:58:35;3.50;99.90
11944;DHT22;6031;50.220;10.122;2022-12-07T09:01:01;3.70;99.90
11944;DHT22;6031;50.220;10.122;2022-12-07T09:03:27;3.90;99.90
11944;DHT22;6031;50.220;10.122;2022-12-07T09:05:53;4.10;99.90
11944;DHT22;6031;50.220;10.122;2022-12-07T09:08:20;4.30;99.90
11944;DHT22;6031;50.220;10.122;2022-12-07T09:10:46;4.60;99.90
11944;DHT22;6031;50.220;10.122;2022-12-07T09:13:13;4.70;99.90
11944;DHT22;6031;50.220;10.122;2022-12-07T09:15:38;4.70;99.90
11944;DHT22;6031;50.220;10.122;2022-12-07T09:18:04;4.80;99.90
11944;DHT22;6031;50.220;10.122;2022-12-07T09:20:30;5.10;99.90
11944;DHT22;6031;50.220;10.122;2022-12-07T09:22:56;5.50;99.90
11944;DHT22;6031;50.220;10.122;2022-12-07T09:25:21;5.80;99.90
11944;DHT22;6031;50.220;10.122;2022-12-07T09:27:47;6.30;99.90
11944;DHT22;6031;50.220;10.122;2022-12-07T09:30:13;6.60;99.90
11944;DHT22;6031;50.220;10.122;2022-12-07T09:32:38;6.40;99.90
11944;DHT22;6031;50.220;10.122;2022-12-07T09:35:04;6.30;99.90
11944;DHT22;6031;50.220;10.122;2022-12-07T09:37:30;6.00;99.90
11944;DHT22;6031;50.220;10.122;2022-12-07T09:40:00;5.70;99.90
11944;DHT22;6031;50.220;10.122;2022-12-07T09:42:30;5.70;99.90
11944;DHT22;6031;50.220;10.122;2022-12-07T09:44:58;5.80;99.90
11944;DHT22;6031;50.220;10.122;2022-12-07T09:47:25;5.90;99.90
11944;DHT22;6031;50.220;10.122;2022-12-07T09:49:51;6.10;99.90
11944;DHT22;6031;50.220;10.122;2022-12-07T09:52:20;6.60;99.90
11944;DHT22;6031;50.220;10.122;2022-12-07T09:54:50;7.10;99.90
11944;DHT22;6031;50.220;10.122;2022-12-07T09:57:18;7.10;99.90
11944;DHT22;6031;50.220;10.122;2022-12-07T09:59:44;6.90;99.90
11944;DHT22;6031;50.220;10.122;2022-12-07T10:05:12;5.90;99.90
11944;DHT22;6031;50.220;10.122;2022-12-07T10:07:38;5.70;99.90
11944;DHT22;6031;50.220;10.122;2022-12-07T10:10:12;5.70;99.90
11944;DHT22;6031;50.220;10.122;2022-12-07T10:15:22;5.70;99.90
11944;DHT22;6031;50.220;10.122;2022-12-07T10:17:51;5.50;99.90
11944;DHT22;6031;50.220;10.122;2022-12-07T10:20:23;5.40;99.90
11944;DHT22;6031;50.220;10.122;2022-12-07T10:25:20;5.40;99.90
11944;DHT22;6031;50.220;10.122;2022-12-07T10:30:33;5.40;99.90
11944;DHT22;6031;50.220;10.122;2022-12-07T10:32:58;5.40;99.90
11944;DHT22;6031;50.220;10.122;2022-12-07T10:35:29;5.30;99.90
11944;DHT22;6031;50.220;10.122;2022-12-07T10:37:57;5.40;99.90
11944;DHT22;6031;50.220;10.122;2022-12-07T10:40:35;5.50;99.90
11944;DHT22;6031;50.220;10.122;2022-12-07T10:48:33;5.50;99.90
11944;DHT22;6031;50.220;10.122;2022-12-07T10:51:29;5.60;99.90
11944;DHT22;6031;50.220;10.122;2022-12-07T10:54:25;5.70;99.90
11944;DHT22;6031;50.220;10.122;2022-12-07T10:59:42;5.50;99.90
11944;DHT22;6031;50.220;10.122;2022-12-07T11:05:04;5.60;99.90
11944;DHT22;6031;50.220;10.122;2022-12-07T11:07:52;5.60;99.90
11944;DHT22;6031;50.220;10.122;2022-12-07T11:15:28;5.20;99.90
11944;DHT22;6031;50.220;10.122;2022-12-07T11:32:07;5.60;99.90
11944;DHT22;6031;50.220;10.122;2022-12-07T11:37:30;5.70;99.90
11944;DHT22;6031;50.220;10.122;2022-12-07T11:40:02;5.70;99.90
11944;DHT22;6031;50.220;10.122;2022-12-07T11:42:42;5.70;99.90
11944;DHT22;6031;50.220;10.122;2022-12-07T11:45:17;5.70;99.90
11944;DHT22;6031;50.220;10.122;2022-12-07T11:48:18;5.60;99.90
11944;DHT22;6031;50.220;10.122;2022-12-07T11:50:57;5.40;99.90
11944;DHT22;6031;50.220;10.122;2022-12-07T11:53:27;5.40;99.90
11944;DHT22;6031;50.220;10.122;2022-12-07T11:56:14;5.40;99.90
11944;DHT22;6031;50.220;10.122;2022-12-07T12:01:24;5.30;99.90
11944;DHT22;6031;50.220;10.122;2022-12-07T12:06:38;5.30;99.90
11944;DHT22;6031;50.220;10.122;2022-12-07T12:09:14;5.40;99.90
11944;DHT22;6031;50.220;10.122;2022-12-07T12:17:53;5.30;99.90
11944;DHT22;6031;50.220;10.122;2022-12-07T12:23:13;5.20;99.90
11944;DHT22;6031;50.220;10.122;2022-12-07T12:25:54;5.10;99.90
11944;DHT22;6031;50.220;10.122;2022-12-07T12:28:31;5.20;99.90
11944;DHT22;6031;50.220;10.122;2022-12-07T12:31:15;5.70;99.90
11944;DHT22;6031;50.220;10.122;2022-12-07T12:33:51;6.10;99.90
11944;DHT22;6031;50.220;10.122;2022-12-07T12:44:38;6.10;99.90
11944;DHT22;6031;50.220;10.122;2022-12-07T12:51:48;5.60;99.90
11944;DHT22;6031;50.220;10.122;2022-12-07T12:59:33;5.30;99.90
11944;DHT22;6031;50.220;10.122;2022-12-07T13:15:49;5.40;99.90
11944;DHT22;6031;50.220;10.122;2022-12-07T13:21:38;5.60;99.90
11944;DHT22;6031;50.220;10.122;2022-12-07T13:26:26;5.40;99.90
11944;DHT22;6031;50.220;10.122;2022-12-07T13:29:18;5.20;99.90
11944;DHT22;6031;50.220;10.122;2022-12-07T13:31:56;5.20;99.90
11944;DHT22;6031;50.220;10.122;2022-12-07T13:36:52;5.10;99.90
11944;DHT22;6031;50.220;10.122;2022-12-07T13:39:20;5.10;99.90
11944;DHT22;6031;50.220;10.122;2022-12-07T13:41:53;5.00;99.90
11944;DHT22;6031;50.220;10.122;2022-12-07T13:44:19;4.90;99.90
11944;DHT22;6031;50.220;10.122;2022-12-07T13:47:09;4.90;99.90
11944;DHT22;6031;50.220;10.122;2022-12-07T13:49:55;4.80;99.90
11944;DHT22;6031;50.220;10.122;2022-12-07T13:52:30;4.70;99.90
11944;DHT22;6031;50.220;10.122;2022-12-07T13:57:29;4.40;99.90
11944;DHT22;6031;50.220;10.122;2022-12-07T14:00:00;4.40;99.90
11944;DHT22;6031;50.220;10.122;2022-12-07T14:02:31;4.30;99.90
11944;DHT22;6031;50.220;10.122;2022-12-07T14:05:24;4.20;99.90
11944;DHT22;6031;50.220;10.122;2022-12-07T14:07:57;4.20;99.90
11944;DHT22;6031;50.220;10.122;2022-12-07T14:10:34;4.20;99.90
11944;DHT22;6031;50.220;10.122;2022-12-07T14:13:01;4.20;99.90
11944;DHT22;6031;50.220;10.122;2022-12-07T14:15:30;4.20;99.90
11944;DHT22;6031;50.220;10.122;2022-12-07T14:17:57;4.10;99.90
11944;DHT22;6031;50.220;10.122;2022-12-07T14:20:34;4.00;99.90
11944;DHT22;6031;50.220;10.122;2022-12-07T14:23:00;4.10;99.90
11944;DHT22;6031;50.220;10.122;2022-12-07T14:25:45;4.10;99.90
11944;DHT22;6031;50.220;10.122;2022-12-07T14:28:28;4.10;99.90
11944;DHT22;6031;50.220;10.122;2022-12-07T14:30:54;4.20;99.90
11944;DHT22;6031;50.220;10.122;2022-12-07T14:33:21;4.10;99.90
11944;DHT22;6031;50.220;10.122;2022-12-07T14:35:48;4.20;99.90
11944;DHT22;6031;50.220;10.122;2022-12-07T14:38:14;4.20;99.90
11944;DHT22;6031;50.220;10.122;2022-12-07T14:40:40;4.20;99.90
11944;DHT22;6031;50.220;10.122;2022-12-07T14:43:11;4.10;99.90
11944;DHT22;6031;50.220;10.122;2022-12-07T14:45:37;3.90;99.90
11944;DHT22;6031;50.220;10.122;2022-12-07T14:48:03;3.90;99.90
11944;DHT22;6031;50.220;10.122;2022-12-07T14:50:29;3.70;99.90
11944;DHT22;6031;50.220;10.122;2022-12-07T14:53:14;3.70;99.90
11944;DHT22;6031;50.220;10.122;2022-12-07T14:55:40;3.70;99.90
11944;DHT22;6031;50.220;10.122;2022-12-07T14:58:06;3.60;99.90
11944;DHT22;6031;50.220;10.122;2022-12-07T15:00:31;3.60;99.90
11944;DHT22;6031;50.220;10.122;2022-12-07T15:02:58;3.70;99.90
11944;DHT22;6031;50.220;10.122;2022-12-07T15:05:24;3.80;99.90
11944;DHT22;6031;50.220;10.122;2022-12-07T15:07:50;3.80;99.90
11944;DHT22;6031;50.220;10.122;2022-12-07T15:10:20;3.90;99.90
11944;DHT22;6031;50.220;10.122;2022-12-07T15:12:46;3.90;99.90
11944;DHT22;6031;50.220;10.122;2022-12-07T15:15:12;3.90;99.90
11944;DHT22;6031;50.220;10.122;2022-12-07T15:17:38;3.90;99.90
11944;DHT22;6031;50.220;10.122;2022-12-07T15:20:04;3.90;99.90
11944;DHT22;6031;50.220;10.122;2022-12-07T15:22:30;3.90;99.90
11944;DHT22;6031;50.220;10.122;2022-12-07T15:24:57;3.90;99.90
11944;DHT22;6031;50.220;10.122;2022-12-07T15:27:22;3.90;99.90
11944;DHT22;6031;50.220;10.122;2022-12-07T15:29:48;3.80;99.90
11944;DHT22;6031;50.220;10.122;2022-12-07T15:32:13;3.70;99.90
11944;DHT22;6031;50.220;10.122;2022-12-07T15:34:39;3.60;99.90
11944;DHT22;6031;50.220;10.122;2022-12-07T15:37:04;3.60;99.90
11944;DHT22;6031;50.220;10.122;2022-12-07T15:39:30;3.50;99.90
11944;DHT22;6031;50.220;10.122;2022-12-07T15:41:56;3.50;99.90
11944;DHT22;6031;50.220;10.122;2022-12-07T15:44:21;3.50;99.90
11944;DHT22;6031;50.220;10.122;2022-12-07T15:47:06;3.50;99.90
11944;DHT22;6031;50.220;10.122;2022-12-07T15:49:31;3.50;99.90
11944;DHT22;6031;50.220;10.122;2022-12-07T15:51:57;3.40;99.90
11944;DHT22;6031;50.220;10.122;2022-12-07T15:54:27;3.30;99.90
11944;DHT22;6031;50.220;10.122;2022-12-07T15:56:54;3.30;99.90
11944;DHT22;6031;50.220;10.122;2022-12-07T15:59:20;3.30;99.90
11944;DHT22;6031;50.220;10.122;2022-12-07T16:01:45;3.20;99.90
11944;DHT22;6031;50.220;10.122;2022-12-07T16:04:11;3.20;99.90
11944;DHT22;6031;50.220;10.122;2022-12-07T16:06:37;3.20;99.90
11944;DHT22;6031;50.220;10.122;2022-12-07T16:09:03;3.20;99.90
11944;DHT22;6031;50.220;10.122;2022-12-07T16:11:29;3.20;99.90
11944;DHT22;6031;50.220;10.122;2022-12-07T16:13:55;3.20;99.90
11944;DHT22;6031;50.220;10.122;2022-12-07T16:16:21;3.20;99.90
11944;DHT22;6031;50.220;10.122;2022-12-07T16:18:50;3.10;99.90
11944;DHT22;6031;50.220;10.122;2022-12-07T16:21:16;3.10;99.90
11944;DHT22;6031;50.220;10.122;2022-12-07T16:23:42;3.00;99.90
11944;DHT22;6031;50.220;10.122;2022-12-07T16:26:14;2.90;99.90
11944;DHT22;6031;50.220;10.122;2022-12-07T16:28:41;2.90;99.90
11944;DHT22;6031;50.220;10.122;2022-12-07T16:31:13;2.90;99.90
11944;DHT22;6031;50.220;10.122;2022-12-07T16:33:40;2.80;99.90
11944;DHT22;6031;50.220;10.122;2022-12-07T16:36:07;2.80;99.90
11944;DHT22;6031;50.220;10.122;2022-12-07T16:38:34;2.70;99.90
11944;DHT22;6031;50.220;10.122;2022-12-07T16:41:00;2.70;99.90
11944;DHT22;6031;50.220;10.122;2022-12-07T16:43:26;2.70;99.90
11944;DHT22;6031;50.220;10.122;2022-12-07T16:45:51;2.60;99.90
11944;DHT22;6031;50.220;10.122;2022-12-07T16:48:17;2.50;99.90
11944;DHT22;6031;50.220;10.122;2022-12-07T16:50:43;2.50;99.90
11944;DHT22;6031;50.220;10.122;2022-12-07T16:53:10;2.60;99.90
11944;DHT22;6031;50.220;10.122;2022-12-07T16:55:40;2.70;99.90
11944;DHT22;6031;50.220;10.122;2022-12-07T16:58:07;2.60;99.90
11944;DHT22;6031;50.220;10.122;2022-12-07T17:00:33;2.60;99.90
11944;DHT22;6031;50.220;10.122;2022-12-07T17:02:59;2.50;99.90
11944;DHT22;6031;50.220;10.122;2022-12-07T17:05:25;2.60;99.90
11944;DHT22;6031;50.220;10.122;2022-12-07T17:07:52;2.60;99.90
11944;DHT22;6031;50.220;10.122;2022-12-07T17:10:17;2.50;99.90
11944;DHT22;6031;50.220;10.122;2022-12-07T17:12:43;2.60;99.90
11944;DHT22;6031;50.220;10.122;2022-12-07T17:15:09;2.60;99.90
11944;DHT22;6031;50.220;10.122;2022-12-07T17:17:56;2.60;99.90
11944;DHT22;6031;50.220;10.122;2022-12-07T17:20:25;2.50;99.90
11944;DHT22;6031;50.220;10.122;2022-12-07T17:22:51;2.60;99.90
11944;DHT22;6031;50.220;10.122;2022-12-07T17:25:17;2.60;99.90
11944;DHT22;6031;50.220;10.122;2022-12-07T17:27:44;2.60;99.90
11944;DHT22;6031;50.220;10.122;2022-12-07T17:30:10;2.60;99.90
11944;DHT22;6031;50.220;10.122;2022-12-07T17:32:36;2.60;99.90
11944;DHT22;6031;50.220;10.122;2022-12-07T17:35:03;2.50;99.90
11944;DHT22;6031;50.220;10.122;2022-12-07T17:37:30;2.50;99.90
11944;DHT22;6031;50.220;10.122;2022-12-07T17:39:56;2.50;99.90
11944;DHT22;6031;50.220;10.122;2022-12-07T17:42:25;2.40;99.90
11944;DHT22;6031;50.220;10.122;2022-12-07T17:45:07;2.40;99.90
11944;DHT22;6031;50.220;10.122;2022-12-07T17:47:34;2.50;99.90
11944;DHT22;6031;50.220;10.122;2022-12-07T17:50:00;2.40;99.90
11944;DHT22;6031;50.220;10.122;2022-12-07T17:52:26;2.50;99.90
11944;DHT22;6031;50.220;10.122;2022-12-07T17:55:10;2.50;99.90
11944;DHT22;6031;50.220;10.122;2022-12-07T17:57:35;2.50;99.90
11944;DHT22;6031;50.220;10.122;2022-12-07T18:00:03;2.50;99.90
11944;DHT22;6031;50.220;10.122;2022-12-07T18:02:28;2.50;99.90
11944;DHT22;6031;50.220;10.122;2022-12-07T18:04:54;2.40;99.90
11944;DHT22;6031;50.220;10.122;2022-12-07T18:07:19;2.40;99.90
11944;DHT22;6031;50.220;10.122;2022-12-07T18:09:45;2.50;99.90